Terminal Aerodrome Forecast
Issued by NWS

Home | Current Version | Previous Version | Text Only | Print | Product List | Glossary On
Versions: 1 2 3 4 5 6 7 8 9 10 11 12 13 14 15 16 17 18 19 20 21 22 23
000
FTUS41 KPBZ 212356 CCB
TAFLBE
TAF COR
KLBE 212356Z 2200/2224 35008KT P6SM OVC010
     FM220400 01005KT P6SM VCSH OVC035
     FM220800 03005KT 4SM -RA OVC030
     FM221200 06008KT 2SM -RA OVC015
     FM221600 07008KT 2SM -RA OVC008
     FM221700 07008KT 2SM -RA OVC008
     FM222100 08005KT P6SM OVC008=

USA.gov is the U.S. government's official web portal to all federal, state and local government web resources and services.